Time;durP1;ratioP1;P1;durP2;ratioP2;P2;SDS_P1;SDS_P2;PMS_P1;PMS_P2;Temp;Humidity;BMP_temperature;BMP_pressure;BME280_temperature;BME280_humidity;BME280_pressure;Samples;Min_cycle;Max_cycle;Signal;HPM_P1;HPM_P2
2023/11/12 13:58:33;;;;;;;9.30;1.10;;;;;;;10.08;100.00;99452.50;99913;1286;5258680;-88
2023/11/12 14:01:15;;;;;;;;;;;;;;;;;;;;;
2023/11/12 14:07:05;;;;;;;4.60;1.60;;;;;;;9.91;100.00;99473.72;103158;1292;74040;-86
2023/11/12 14:38:15;;;;;;;5.00;2.40;;;;;;;9.74;100.00;99521.48;106398;1260;72104;-87
2023/11/12 14:54:55;;;;;;;;;;;;;;;;;;;;;
2023/11/12 14:57:57;;;;;;;;;;;;;;;;;;;;;
2023/11/12 15:20:29;;;;;;;;;;;;;;;;;;;;;
2023/11/12 15:26:17;;;;;;;10.80;6.10;;;;;;;9.15;100.00;99614.14;105767;1270;71375;-83
2023/11/12 15:46:07;;;;;;;;;;;;;;;;;;;;;
2023/11/12 15:48:46;;;;;;;9.00;5.90;;;;;;;9.19;100.00;99672.67;105630;1271;61978;-85
2023/11/12 15:51:52;;;;;;;12.10;6.90;;;;;;;9.11;100.00;99679.26;105591;1272;73074;-84
2023/11/12 16:04:05;;;;;;;15.40;8.80;;;;;;;8.97;100.00;99714.10;104856;1282;60556;-84
2023/11/12 16:09:52;;;;;;;;;;;;;;;;;;;;;
2023/11/12 16:12:36;;;;;;;;;;;;;;;;;;;;;
2023/11/12 16:18:28;;;;;;;20.30;10.40;;;;;;;8.99;100.00;99745.23;105119;1277;60382;-85
2023/11/12 16:21:00;;;;;;;20.40;11.50;;;;;;;9.00;100.00;99750.34;105239;1271;74436;-86
2023/11/12 16:23:26;;;;;;;21.30;11.90;;;;;;;8.98;100.00;99759.27;105217;1277;74323;-85
2023/11/12 16:25:52;;;;;;;22.80;12.20;;;;;;;9.02;100.00;99764.35;105045;1277;60295;-83
2023/11/12 16:28:18;;;;;;;22.90;12.60;;;;;;;9.04;100.00;99774.95;104932;1285;60592;-83
2023/11/12 16:30:48;;;;;;;26.10;12.70;;;;;;;9.05;100.00;99777.95;104869;1283;60623;-84
2023/11/12 16:33:13;;;;;;;25.00;12.80;;;;;;;9.03;100.00;99776.77;104726;1285;74291;-85
2023/11/12 16:35:39;;;;;;;23.70;12.30;;;;;;;9.04;100.00;99785.27;104620;1283;60900;-84
2023/11/12 16:38:07;;;;;;;21.80;12.00;;;;;;;8.99;100.00;99787.03;104902;1286;60542;-85
2023/11/12 16:44:39;;;;;;;25.50;13.60;;;;;;;9.04;100.00;99803.38;102590;1295;617454;-85
2023/11/12 16:50:27;;;;;;;30.80;15.30;;;;;;;8.95;100.00;99817.24;102839;1301;61758;-86
2023/11/12 16:52:54;;;;;;;27.40;15.30;;;;;;;8.96;100.00;99826.00;102758;1295;60406;-87
2023/11/12 16:55:24;;;;;;;36.40;16.40;;;;;;;9.00;100.00;99830.52;102761;1298;75988;-86
2023/11/12 16:58:53;;;;;;;;;;;;;;;;;;;;;
2023/11/12 17:02:10;;;;;;;;;;;;;;;;;;;;;
2023/11/12 17:05:04;;;;;;;;;;;;;;;;;;;;;
2023/11/12 17:07:33;;;;;;;41.40;18.30;;;;;;;9.02;100.00;99846.75;102000;1310;71362;-86
2023/11/12 17:10:00;;;;;;;40.50;20.10;;;;;;;9.02;100.00;99853.46;101984;1307;74109;-87
2023/11/12 17:12:30;;;;;;;39.40;19.80;;;;;;;9.03;100.00;99853.30;104917;1303;352218;-89
2023/11/12 17:18:56;;;;;;;;;;;;;;;;;;;;;
2023/11/12 17:22:34;;;;;;;;;;;;;;;;;;;;;
2023/11/12 17:25:41;;;;;;;;;;;;;;;;;;;;;
2023/11/12 17:32:30;;;;;;;;;;;;;;;;;;;;;
2023/11/12 17:41:51;;;;;;;;;;;;;;;;;;;;;
2023/11/12 17:55:09;;;;;;;;;;;;;;;;;;;;;
2023/11/12 18:07:45;;;;;;;;;;;;;;;;;;;;;
2023/11/12 18:10:31;;;;;;;;;;;;;;;;;;;;;
2023/11/12 18:13:27;;;;;;;;;;;;;;;;;;;;;
2023/11/12 18:17:08;;;;;;;;;;;;;;;;;;;;;
2023/11/12 18:20:07;;;;;;;;;;;;;;;;;;;;;
2023/11/12 18:25:58;;;;;;;;;;;;;;;;;;;;;
2023/11/12 18:28:30;;;;;;;41.40;17.30;;;;;;;9.41;100.00;99980.94;102865;1330;73213;-85
2023/11/12 18:31:11;;;;;;;38.10;18.00;;;;;;;9.43;100.00;99989.34;103168;1324;71579;-84
2023/11/12 18:33:42;;;;;;;36.40;18.40;;;;;;;9.42;100.00;99990.52;103365;1321;61896;-82
2023/11/12 18:36:13;;;;;;;36.60;17.50;;;;;;;9.41;100.00;99997.17;104073;1314;61055;-85
2023/11/12 18:38:44;;;;;;;34.50;17.10;;;;;;;9.41;100.00;100001.87;104411;1309;73108;-84
2023/11/12 18:41:14;;;;;;;35.50;17.20;;;;;;;9.43;100.00;100004.34;104675;1308;74290;-82
2023/11/12 18:43:51;;;;;;;36.90;17.20;;;;;;;9.41;100.00;100005.84;104402;1310;71906;-82
2023/11/12 18:46:17;;;;;;;36.40;17.70;;;;;;;9.42;100.00;100013.70;104645;1308;59378;-82
2023/11/12 18:48:42;;;;;;;39.30;18.10;;;;;;;9.43;100.00;100022.35;104669;1309;58342;-83
2023/11/12 18:57:51;;;;;;;35.70;18.80;;;;;;;9.41;100.00;100030.59;105228;1305;71371;-83
2023/11/12 19:00:17;;;;;;;39.90;19.70;;;;;;;9.43;100.00;100038.23;105367;1297;59398;-84
2023/11/12 19:06:04;;;;;;;38.90;19.60;;;;;;;9.45;100.00;100040.12;106125;1293;71785;-83
2023/11/12 19:08:31;;;;;;;43.20;21.00;;;;;;;9.44;100.00;100041.67;105961;1292;58322;-83
2023/11/12 19:14:18;;;;;;;37.80;19.50;;;;;;;9.48;100.00;100053.24;106117;1293;59685;-84
2023/11/12 19:20:08;;;;;;;38.50;20.40;;;;;;;9.50;100.00;100057.60;106188;1292;72989;-82
2023/11/12 19:22:38;;;;;;;43.30;20.20;;;;;;;9.49;100.00;100061.36;105821;1292;74789;-85
2023/11/12 19:28:25;;;;;;;42.50;20.60;;;;;;;9.50;100.00;100065.23;106135;1292;59754;-84
2023/11/12 19:30:51;;;;;;;41.40;20.30;;;;;;;9.50;100.00;100071.54;106179;1288;58237;-82
2023/11/12 19:33:17;;;;;;;43.40;21.00;;;;;;;9.49;100.00;100074.32;106545;1288;58181;-84
2023/11/12 19:35:42;;;;;;;45.90;21.30;;;;;;;9.49;100.00;100077.17;106510;1288;58480;-84
2023/11/12 19:41:29;;;;;;;37.80;19.40;;;;;;;9.49;100.00;100088.16;106656;1288;60074;-85
2023/11/12 19:43:55;;;;;;;39.90;20.20;;;;;;;9.48;100.00;100090.03;106493;1287;58289;-86
2023/11/12 19:46:21;;;;;;;39.90;20.30;;;;;;;9.48;100.00;100091.43;106443;1287;58039;-84
2023/11/12 19:52:19;;;;;;;36.60;19.40;;;;;;;9.50;100.00;100100.96;106594;1287;60845;-85
2023/11/12 19:55:18;;;;;;;;;;;;;;;;;;;;;
2023/11/12 19:58:26;;;;;;;;;;;;;;;;;;;;;
2023/11/12 20:01:29;;;;;;;;;;;;;;;;;;;;;
2023/11/12 20:14:01;;;;;;;;;;;;;;;;;;;;;
2023/11/12 20:20:31;;;;;;;;;;;;;;;;;;;;;
2023/11/12 20:23:38;;;;;;;;;;;;;;;;;;;;;
2023/11/12 20:33:08;;;;;;;36.10;19.10;;;;;;;9.52;100.00;100144.11;103206;1327;72154;-85
2023/11/12 20:36:31;;;;;;;;;;;;;;;;;;;;;
2023/11/12 20:42:55;;;;;;;;;;;;;;;;;;;;;
2023/11/12 20:45:36;;;;;;;41.70;20.60;;;;;;;9.47;100.00;100156.09;103111;1329;74594;-84
2023/11/12 20:48:58;;;;;;;;;;;;;;;;;;;;;
2023/11/12 20:58:44;;;;;;;;;;;;;;;;;;;;;
2023/11/12 21:03:55;;;;;;;50.60;24.20;;;;;;;9.54;100.00;100191.67;102877;1332;74022;-87
2023/11/12 21:06:47;;;;;;;;;;;;;;;;;;;;;
2023/11/12 21:10:25;;;;;;;40.90;20.80;;;;;;;9.53;100.00;100197.01;103329;1323;61588;-87
2023/11/12 21:12:21;;;;;;;43.90;20.70;;;;;;;9.54;100.00;100201.30;103336;1322;60239;-87
2023/11/12 21:14:46;;;;;;;43.00;21.00;;;;;;;9.52;100.00;100206.46;103488;1322;73628;-86
2023/11/12 21:17:15;;;;;;;46.80;20.60;;;;;;;9.53;100.00;100207.65;103825;1320;58272;-87
2023/11/12 21:19:41;;;;;;;39.50;19.20;;;;;;;9.56;100.00;100208.46;104124;1313;73659;-86
2023/11/12 21:22:07;;;;;;;35.60;18.70;;;;;;;9.58;100.00;100218.05;104463;1306;58098;-85
2023/11/12 21:24:32;;;;;;;37.50;18.90;;;;;;;9.57;100.00;100219.45;104811;1306;58072;-86
2023/11/12 21:26:59;;;;;;;35.30;18.50;;;;;;;9.57;100.00;100222.14;104965;1306;58228;-86
2023/11/12 21:32:45;;;;;;;36.20;17.50;;;;;;;9.57;100.00;100223.01;105318;1301;72325;-86
2023/11/12 21:35:11;;;;;;;30.40;15.90;;;;;;;9.56;100.00;100223.38;105772;1290;58379;-86
2023/11/12 21:37:37;;;;;;;25.70;14.90;;;;;;;9.56;100.00;100224.29;106320;1288;58088;-86
2023/11/12 21:40:03;;;;;;;30.80;15.10;;;;;;;9.57;100.00;100227.85;106464;1288;58171;-86
2023/11/12 21:42:29;;;;;;;31.10;15.70;;;;;;;9.58;100.00;100235.92;106500;1288;58101;-86
2023/11/12 21:44:55;;;;;;;28.30;14.60;;;;;;;9.57;100.00;100237.15;106277;1288;58194;-87
2023/11/12 21:47:23;;;;;;;25.20;13.40;;;;;;;9.57;100.00;100238.44;106533;1288;58392;-87
2023/11/12 21:49:48;;;;;;;27.50;14.50;;;;;;;9.56;100.00;100241.71;106439;1288;74107;-86
2023/11/12 21:52:14;;;;;;;24.50;13.90;;;;;;;9.58;100.00;100242.31;106499;1288;58682;-88
2023/11/12 21:58:01;;;;;;;22.90;12.40;;;;;;;9.65;100.00;100249.98;106492;1286;60980;-86
2023/11/12 22:07:15;;;;;;;26.50;13.10;;;;;;;9.66;100.00;100262.86;106700;1286;72259;-86
2023/11/12 22:09:41;;;;;;;27.80;13.70;;;;;;;9.65;100.00;100269.42;106589;1286;73535;-86
2023/11/12 22:12:07;;;;;;;25.40;14.20;;;;;;;9.64;100.00;100267.04;106729;1287;59248;-86
2023/11/12 22:17:54;;;;;;;25.60;12.70;;;;;;;9.63;100.00;100274.99;106697;1288;73584;-86
2023/11/12 22:20:20;;;;;;;25.10;13.20;;;;;;;9.63;100.00;100274.41;106718;1287;58374;-87
2023/11/12 22:22:48;;;;;;;24.90;13.60;;;;;;;9.65;100.00;100280.19;106703;1286;58247;-85
2023/11/12 22:25:15;;;;;;;27.10;14.20;;;;;;;9.64;100.00;100281.09;106663;1288;61995;-88
2023/11/12 22:27:44;;;;;;;34.70;15.90;;;;;;;9.64;100.00;100279.95;106709;1286;58220;-86
2023/11/12 22:30:12;;;;;;;33.20;16.90;;;;;;;9.64;100.00;100281.25;106762;1286;74084;-85
2023/11/12 22:32:37;;;;;;;34.60;17.70;;;;;;;9.64;100.00;100279.15;106688;1288;73179;-87
2023/11/12 22:35:05;;;;;;;36.10;18.40;;;;;;;9.66;100.00;100280.29;106650;1288;58303;-86
2023/11/12 22:37:31;;;;;;;41.40;19.10;;;;;;;9.67;100.00;100284.33;106495;1286;61886;-85
2023/11/12 22:39:57;;;;;;;41.10;20.20;;;;;;;9.68;100.00;100288.27;106366;1287;58356;-85
2023/11/12 22:42:22;;;;;;;33.00;17.50;;;;;;;9.67;100.00;100287.24;106664;1287;58338;-86
2023/11/12 22:44:49;;;;;;;39.90;18.50;;;;;;;9.68;100.00;100289.66;106399;1289;58451;-86
2023/11/12 22:47:15;;;;;;;37.10;17.80;;;;;;;9.68;100.00;100296.34;106530;1287;58260;-87
2023/11/12 22:49:41;;;;;;;36.70;19.40;;;;;;;9.69;100.00;100294.61;106276;1286;58373;-85
2023/11/12 22:52:07;;;;;;;36.20;18.60;;;;;;;9.72;100.00;100299.69;106752;1288;58726;-86
2023/11/12 22:54:34;;;;;;;37.80;18.40;;;;;;;9.68;100.00;100298.65;106559;1288;74558;-87
2023/11/12 22:56:59;;;;;;;36.00;19.20;;;;;;;9.62;100.00;100302.60;106508;1286;72571;-86
2023/11/12 22:59:25;;;;;;;37.70;19.00;;;;;;;9.62;100.00;100301.80;106691;1287;58235;-85
2023/11/12 23:01:51;;;;;;;35.90;18.10;;;;;;;9.62;100.00;100307.16;106579;1286;58391;-84
2023/11/12 23:04:16;;;;;;;36.00;17.50;;;;;;;9.63;100.00;100314.70;106461;1286;58259;-85
2023/11/12 23:06:42;;;;;;;34.00;16.80;;;;;;;9.67;100.00;100308.65;106751;1289;58318;-85
2023/11/12 23:09:08;;;;;;;34.00;17.40;;;;;;;9.65;100.00;100313.59;106457;1286;63316;-84
2023/11/12 23:11:33;;;;;;;32.00;16.00;;;;;;;9.65;100.00;100317.52;106717;1286;58622;-87
2023/11/12 23:17:22;;;;;;;33.40;16.70;;;;;;;9.59;100.00;100316.84;106718;1287;73277;-85
2023/11/12 23:23:09;;;;;;;37.50;17.50;;;;;;;9.61;100.00;100332.13;106661;1289;59908;-85
2023/11/12 23:25:35;;;;;;;34.80;16.70;;;;;;;9.62;100.00;100332.09;106696;1288;58077;-86
2023/11/12 23:28:00;;;;;;;29.30;16.00;;;;;;;9.62;100.00;100338.86;106672;1286;58438;-86
2023/11/12 23:30:29;;;;;;;32.80;16.10;;;;;;;9.64;100.00;100340.83;106701;1286;58781;-85
2023/11/12 23:32:55;;;;;;;35.70;17.50;;;;;;;9.66;100.00;100342.50;106677;1286;58551;-85
2023/11/12 23:38:42;;;;;;;34.70;16.30;;;;;;;9.62;100.00;100345.81;106666;1286;60173;-86
2023/11/12 23:41:08;;;;;;;29.50;15.70;;;;;;;9.60;100.00;100350.42;106704;1286;59522;-85
2023/11/12 23:43:36;;;;;;;30.30;15.90;;;;;;;9.58;100.00;100354.65;106693;1285;58361;-86
2023/11/12 23:46:03;;;;;;;31.60;15.70;;;;;;;9.56;100.00;100358.47;106769;1285;72332;-85
2023/11/12 23:48:29;;;;;;;25.30;14.40;;;;;;;9.55;100.00;100358.78;106840;1285;62086;-86
2023/11/12 23:50:55;;;;;;;29.00;15.00;;;;;;;9.54;100.00;100358.35;106807;1285;58285;-85
2023/11/12 23:53:21;;;;;;;28.30;14.60;;;;;;;9.55;100.00;100361.91;106835;1285;58660;-84
2023/11/12 23:55:47;;;;;;;32.80;16.20;;;;;;;9.55;100.00;100363.58;106847;1285;58415;-85
2023/11/12 23:58:13;;;;;;;33.00;16.00;;;;;;;9.53;100.00;100368.02;106791;1285;58326;-84
